Time;durP1;ratioP1;P1;durP2;ratioP2;P2;SDS_P1;SDS_P2;PMS_P1;PMS_P2;Temp;Humidity;BMP_temperature;BMP_pressure;BME280_temperature;BME280_humidity;BME280_pressure;Samples;Min_cycle;Max_cycle;Signal;HPM_P1;HPM_P2
2023/09/13 00:02:04;;;;;;;5.83;1.57;;;;;;;18.12;100.00;102072.25;4905623;29;20231;-69
2023/09/13 00:04:29;;;;;;;5.33;1.70;;;;;;;18.17;100.00;102077.03;4904380;29;20239;-69
2023/09/13 00:06:55;;;;;;;5.03;1.60;;;;;;;18.49;100.00;102086.00;4906520;29;20442;-70
2023/09/13 00:09:20;;;;;;;4.67;1.30;;;;;;;18.51;100.00;102062.13;4907990;29;20667;-69
2023/09/13 00:11:47;;;;;;;4.43;1.40;;;;;;;17.99;100.00;101997.19;4906843;29;20191;-69
2023/09/13 00:14:12;;;;;;;3.60;1.27;;;;;;;18.34;100.00;102036.56;4906502;29;20215;-69
2023/09/13 00:16:38;;;;;;;5.53;1.70;;;;;;;18.26;100.00;102045.84;4907632;29;20444;-69
2023/09/13 00:19:04;;;;;;;6.23;1.60;;;;;;;18.22;100.00;102017.44;4907217;29;20633;-69
2023/09/13 00:21:30;;;;;;;4.07;1.53;;;;;;;18.36;100.00;102027.16;4907767;29;20457;-69
2023/09/13 00:23:55;;;;;;;5.77;1.70;;;;;;;17.89;100.00;101920.00;4907286;29;20233;-69
2023/09/13 00:26:21;;;;;;;5.60;1.30;;;;;;;18.40;100.00;101976.78;4907014;29;25108;-69
2023/09/13 00:28:47;;;;;;;3.60;1.20;;;;;;;18.43;100.00;101953.78;4909361;29;20187;-69
2023/09/13 00:31:13;;;;;;;3.90;1.43;;;;;;;18.33;100.00;101942.56;4912345;29;20182;-70
2023/09/13 00:33:39;;;;;;;5.63;1.53;;;;;;;18.06;100.00;101908.34;4911605;29;25152;-69
2023/09/13 00:36:04;;;;;;;4.83;1.43;;;;;;;17.56;100.00;101818.78;4915229;29;25067;-69
2023/09/13 00:38:30;;;;;;;6.03;1.50;;;;;;;18.15;100.00;101932.50;4913346;29;20952;-70
2023/09/13 00:40:55;;;;;;;7.43;1.57;;;;;;;18.09;100.00;101915.22;4913049;29;20189;-69
2023/09/13 00:43:21;;;;;;;5.40;1.60;;;;;;;18.34;100.00;101922.50;4911924;29;20204;-69
2023/09/13 00:45:48;;;;;;;4.50;1.53;;;;;;;17.79;100.00;101818.22;4913217;29;20227;-69
2023/09/13 00:48:14;;;;;;;4.70;1.20;;;;;;;17.60;100.00;101789.34;4912949;29;20192;-69
2023/09/13 00:50:41;;;;;;;5.63;1.63;;;;;;;18.13;100.00;101902.03;4912303;29;20540;-69
2023/09/13 00:53:09;;;;;;;4.87;1.40;;;;;;;18.10;100.00;101925.03;4913105;29;20449;-69
2023/09/13 00:55:36;;;;;;;7.20;1.43;;;;;;;18.14;100.00;101945.25;4910125;29;20440;-70
2023/09/13 00:58:04;;;;;;;5.40;1.93;;;;;;;18.10;100.00;101960.31;4910981;29;21065;-70
2023/09/13 01:00:30;;;;;;;4.00;1.13;;;;;;;17.51;100.00;101883.72;4911354;29;20457;-70
2023/09/13 01:02:55;;;;;;;7.67;1.30;;;;;;;18.05;100.00;101971.84;4907838;29;20464;-70
2023/09/13 01:05:22;;;;;;;6.83;2.00;;;;;;;17.72;100.00;101889.81;4910192;29;20210;-70
2023/09/13 01:07:48;;;;;;;6.07;1.50;;;;;;;18.05;100.00;101960.16;4910443;29;20189;-70
2023/09/13 01:10:15;;;;;;;5.10;1.40;;;;;;;17.92;100.00;101965.69;4909679;29;25099;-69
2023/09/13 01:12:40;;;;;;;6.03;2.13;;;;;;;18.04;100.00;101986.47;4910329;29;20475;-69
2023/09/13 01:15:07;;;;;;;3.93;1.40;;;;;;;17.77;100.00;101936.97;4922843;29;20435;-69
2023/09/13 01:17:39;;;;;;;5.53;1.47;;;;;;;18.24;100.00;101958.31;4910910;29;20243;-69
2023/09/13 01:20:16;;;;;;;5.10;1.30;;;;;;;18.24;100.00;101956.44;4910736;29;25103;-69
2023/09/13 01:22:51;;;;;;;5.70;1.50;;;;;;;18.27;100.00;101966.03;4910120;29;20524;-69
2023/09/13 01:25:47;;;;;;;5.53;1.80;;;;;;;18.14;100.00;101939.84;4910143;29;20478;-69
2023/09/13 01:28:33;;;;;;;7.67;1.60;;;;;;;18.20;100.00;101933.50;4910133;29;20445;-69
2023/09/13 01:30:59;;;;;;;8.17;1.63;;;;;;;18.03;100.00;101933.22;4910718;29;20460;-69
2023/09/13 01:33:24;;;;;;;4.60;1.50;;;;;;;18.10;100.00;101918.75;4911180;29;20528;-69
2023/09/13 01:35:51;;;;;;;5.27;1.40;;;;;;;18.22;100.00;101952.28;4922576;29;25067;-69
2023/09/13 01:38:16;;;;;;;4.17;1.10;;;;;;;17.59;100.00;101877.22;4908558;29;25147;-69
2023/09/13 01:40:44;;;;;;;3.60;1.37;;;;;;;17.50;100.00;101854.94;4921112;29;20462;-69
2023/09/13 01:43:09;;;;;;;4.33;1.33;;;;;;;17.95;100.00;101936.22;4910490;29;20673;-70
2023/09/13 01:45:36;;;;;;;7.23;1.77;;;;;;;17.67;100.00;101868.78;4909953;29;20486;-69
2023/09/13 01:48:03;;;;;;;5.07;1.67;;;;;;;18.24;100.00;101951.00;4911726;29;20195;-69
2023/09/13 01:50:30;;;;;;;4.50;1.30;;;;;;;18.19;100.00;101958.16;4909735;29;20501;-70
2023/09/13 01:52:56;;;;;;;3.70;1.30;;;;;;;18.14;100.00;101947.13;4911780;29;20475;-70
2023/09/13 01:55:22;;;;;;;3.43;1.27;;;;;;;18.18;100.00;101978.22;4910729;29;25155;-70
2023/09/13 01:57:47;;;;;;;5.20;1.30;;;;;;;18.12;100.00;101981.84;4912419;29;20198;-70
2023/09/13 02:00:13;;;;;;;4.43;1.57;;;;;;;18.13;100.00;101968.03;4908871;29;25103;-70
2023/09/13 02:02:39;;;;;;;5.07;1.30;;;;;;;17.89;100.00;101911.84;4924212;29;20347;-70
2023/09/13 02:05:05;;;;;;;4.80;1.40;;;;;;;17.60;100.00;101901.38;4922394;29;20477;-69
2023/09/13 02:07:30;;;;;;;3.73;1.20;;;;;;;18.06;100.00;101983.53;4907923;29;20197;-69
2023/09/13 02:09:55;;;;;;;4.77;1.70;;;;;;;17.48;100.00;101878.72;4908217;29;20207;-70
2023/09/13 02:12:21;;;;;;;5.37;1.57;;;;;;;17.98;100.00;101960.22;4911543;29;20188;-69
2023/09/13 02:14:46;;;;;;;4.97;2.07;;;;;;;17.77;100.00;101900.84;4919832;29;20703;-70
2023/09/13 02:17:12;;;;;;;4.00;1.10;;;;;;;18.01;100.00;101953.50;4908994;29;20201;-69
2023/09/13 02:19:37;;;;;;;5.63;1.60;;;;;;;18.13;100.00;102000.59;4907721;29;25063;-69
2023/09/13 02:22:03;;;;;;;6.07;1.33;;;;;;;18.01;100.00;101996.94;4924428;29;20192;-69
2023/09/13 02:24:28;;;;;;;6.20;1.50;;;;;;;17.87;100.00;101977.19;4907553;29;20222;-69
2023/09/13 02:26:56;;;;;;;5.17;1.23;;;;;;;17.39;100.00;101905.28;4909648;29;20193;-70
2023/09/13 02:29:22;;;;;;;5.47;1.63;;;;;;;17.93;100.00;102041.47;4907131;29;20198;-69
2023/09/13 02:31:47;;;;;;;6.20;1.43;;;;;;;17.82;100.00;102029.44;4909838;29;20529;-69
2023/09/13 02:34:13;;;;;;;5.77;1.50;;;;;;;18.04;100.00;102065.19;4910393;29;20472;-69
2023/09/13 02:36:38;;;;;;;4.80;1.83;;;;;;;17.87;100.00;102038.78;4908360;29;20667;-69
2023/09/13 02:39:03;;;;;;;5.97;1.80;;;;;;;17.38;100.00;101994.97;4912443;29;20188;-69
2023/09/13 02:41:29;;;;;;;5.07;1.20;;;;;;;17.85;100.00;102066.16;4910056;29;20719;-69
2023/09/13 02:43:54;;;;;;;4.47;1.30;;;;;;;18.07;100.00;102074.78;4909531;29;20217;-69
2023/09/13 02:46:19;;;;;;;4.20;1.47;;;;;;;17.96;100.00;102062.72;4911266;29;25147;-69
2023/09/13 02:48:45;;;;;;;7.43;1.30;;;;;;;17.78;100.00;102055.31;4912676;29;20188;-69
2023/09/13 02:51:14;;;;;;;4.23;1.53;;;;;;;17.57;100.00;102013.06;4910496;29;20222;-69
2023/09/13 02:53:40;;;;;;;3.90;1.30;;;;;;;17.85;100.00;102025.47;4909137;29;20323;-69
2023/09/13 02:56:07;;;;;;;3.93;1.30;;;;;;;17.15;100.00;101935.84;4909104;29;20985;-69
2023/09/13 02:58:32;;;;;;;6.13;1.53;;;;;;;17.63;100.00;102011.34;4911663;29;20197;-69
2023/09/13 03:01:02;;;;;;;10.30;2.60;;;;;;;17.81;100.00;102040.50;4924834;29;20963;-69
2023/09/13 03:03:28;;;;;;;4.83;1.30;;;;;;;17.56;100.00;102002.41;4909436;29;20213;-69
2023/09/13 03:05:54;;;;;;;4.23;1.30;;;;;;;17.67;100.00;102015.28;4925230;29;20559;-69
2023/09/13 03:08:19;;;;;;;5.03;1.93;;;;;;;17.52;100.00;101980.31;4911085;29;20230;-69
2023/09/13 03:10:45;;;;;;;4.37;1.20;;;;;;;17.08;100.00;101924.22;4925883;29;20239;-69
2023/09/13 03:13:10;;;;;;;6.03;1.47;;;;;;;17.06;100.00;101899.22;4921804;29;20216;-69
2023/09/13 03:15:36;;;;;;;4.03;1.30;;;;;;;16.93;100.00;101900.94;4906604;29;20305;-69
2023/09/13 03:18:01;;;;;;;5.63;1.27;;;;;;;16.82;100.00;101866.38;4910695;29;20540;-69
2023/09/13 03:20:27;;;;;;;6.17;1.50;;;;;;;17.55;100.00;101971.72;4908759;29;20194;-69
2023/09/13 03:22:55;;;;;;;8.00;2.30;;;;;;;17.02;100.00;101893.41;4905463;29;25063;-69
2023/09/13 03:25:20;;;;;;;6.07;2.03;;;;;;;17.08;100.00;101905.25;4909311;29;20437;-69
2023/09/13 03:27:48;;;;;;;6.23;1.60;;;;;;;17.25;100.00;101919.97;4909998;29;20456;-69
2023/09/13 03:30:13;;;;;;;3.80;1.43;;;;;;;17.30;100.00;101928.28;4920458;29;20691;-69
2023/09/13 03:32:39;;;;;;;6.57;1.67;;;;;;;17.05;100.00;101902.97;4906122;29;20480;-69
2023/09/13 03:35:05;;;;;;;5.00;1.57;;;;;;;17.38;100.00;101948.88;4907728;29;20305;-69
2023/09/13 03:37:32;;;;;;;5.93;1.53;;;;;;;16.43;100.00;101815.88;4908158;29;20235;-69
2023/09/13 03:39:58;;;;;;;7.80;1.97;;;;;;;17.42;100.00;101942.00;4922542;29;20822;-69
2023/09/13 03:42:23;;;;;;;4.30;1.60;;;;;;;17.29;100.00;101940.16;4922245;29;20452;-69
2023/09/13 03:44:49;;;;;;;5.10;1.47;;;;;;;17.07;100.00;101919.88;4919921;29;20224;-69
2023/09/13 03:47:14;;;;;;;4.90;1.20;;;;;;;17.19;100.00;101930.84;4908522;29;25146;-68
2023/09/13 03:49:40;;;;;;;4.03;1.17;;;;;;;17.21;100.00;101907.06;4918610;29;20284;-69
2023/09/13 03:52:05;;;;;;;4.23;1.60;;;;;;;16.96;100.00;101931.38;4907774;29;20200;-69
2023/09/13 03:54:31;;;;;;;8.60;1.40;;;;;;;17.06;100.00;101924.44;4906786;29;20219;-69
2023/09/13 03:56:57;;;;;;;4.30;1.40;;;;;;;17.15;100.00;101922.31;4907245;29;20188;-69
2023/09/13 03:59:23;;;;;;;6.63;1.60;;;;;;;17.19;100.00;101914.59;4903710;29;20984;-69
2023/09/13 04:01:48;;;;;;;4.73;1.57;;;;;;;17.16;100.00;101896.88;4906247;29;20457;-69
2023/09/13 04:04:14;;;;;;;5.20;1.50;;;;;;;16.36;100.00;101796.13;4910627;29;20300;-69
2023/09/13 04:06:40;;;;;;;4.60;1.20;;;;;;;16.63;100.00;101810.38;4909372;29;20545;-69
2023/09/13 04:09:06;;;;;;;3.97;1.30;;;;;;;16.99;100.00;101925.53;4910917;29;20202;-69
2023/09/13 04:11:31;;;;;;;5.70;1.33;;;;;;;16.71;100.00;101902.25;4922923;29;20286;-69
2023/09/13 04:13:57;;;;;;;5.60;1.63;;;;;;;16.81;100.00;101918.91;4909750;29;20474;-69
2023/09/13 04:16:22;;;;;;;6.47;1.50;;;;;;;16.93;100.00;101960.56;4925606;29;20189;-69
2023/09/13 04:18:48;;;;;;;4.63;1.50;;;;;;;16.34;100.00;101864.00;4927580;29;20190;-69
2023/09/13 04:21:13;;;;;;;4.63;1.70;;;;;;;16.93;100.00;101959.72;4913062;29;20661;-69
2023/09/13 04:23:39;;;;;;;4.67;1.60;;;;;;;15.99;100.00;101842.63;4911401;29;20568;-69
2023/09/13 04:26:04;;;;;;;6.20;1.60;;;;;;;16.09;100.00;101861.16;4912887;29;25124;-69
2023/09/13 04:28:32;;;;;;;6.13;1.83;;;;;;;16.26;100.00;101846.13;4914594;29;25126;-69
2023/09/13 04:30:59;;;;;;;5.23;2.00;;;;;;;16.98;100.00;101940.09;4913356;29;20305;-69
2023/09/13 04:33:54;;;;;;;5.67;1.50;;;;;;;16.85;100.00;101933.69;4912812;29;25115;-69
2023/09/13 04:36:19;;;;;;;4.30;1.27;;;;;;;16.83;100.00;101921.41;4912447;29;20425;-69
2023/09/13 04:38:46;;;;;;;5.03;1.43;;;;;;;17.12;100.00;101925.44;4911727;29;20988;-69
2023/09/13 04:41:13;;;;;;;6.60;1.70;;;;;;;17.00;100.00;101908.19;4913229;29;20200;-69
2023/09/13 04:43:39;;;;;;;4.80;1.57;;;;;;;16.62;100.00;101844.75;4924146;29;20816;-69
2023/09/13 04:46:04;;;;;;;4.00;1.20;;;;;;;16.87;100.00;101885.53;4912036;29;20477;-69
2023/09/13 04:48:30;;;;;;;4.73;1.57;;;;;;;16.94;100.00;101891.75;4912169;29;25074;-69
2023/09/13 04:50:55;;;;;;;4.60;1.50;;;;;;;16.95;100.00;101884.44;4914593;29;20200;-69
2023/09/13 04:53:21;;;;;;;5.27;1.80;;;;;;;16.26;100.00;101793.88;4912365;29;20223;-69
2023/09/13 04:55:46;;;;;;;4.87;1.33;;;;;;;16.72;100.00;101852.41;4908975;29;25071;-69
2023/09/13 04:58:12;;;;;;;6.27;2.00;;;;;;;16.42;100.00;101789.84;4911049;29;20931;-69
2023/09/13 05:00:37;;;;;;;7.37;2.00;;;;;;;16.36;100.00;101766.34;4910886;29;20803;-69
2023/09/13 05:03:03;;;;;;;4.97;1.93;;;;;;;16.96;100.00;101893.44;4923372;29;20217;-69
2023/09/13 05:05:28;;;;;;;6.10;1.77;;;;;;;16.96;100.00;101901.56;4913916;29;20219;-69
2023/09/13 05:07:54;;;;;;;4.37;1.83;;;;;;;16.56;100.00;101831.25;4921586;29;20205;-69
2023/09/13 05:10:20;;;;;;;5.97;1.50;;;;;;;16.74;100.00;101847.63;4908690;29;20200;-69
2023/09/13 05:12:48;;;;;;;4.03;1.53;;;;;;;16.40;100.00;101825.28;4910881;29;20556;-69
2023/09/13 05:15:14;;;;;;;4.20;1.30;;;;;;;16.84;100.00;101904.13;4901923;29;20192;-69
2023/09/13 05:17:40;;;;;;;8.13;1.90;;;;;;;16.98;100.00;101870.50;4909448;29;20543;-69
2023/09/13 05:20:06;;;;;;;5.57;1.93;;;;;;;16.36;100.00;101780.69;4917534;29;20253;-69
2023/09/13 05:22:33;;;;;;;5.10;1.77;;;;;;;17.02;100.00;101884.44;4908471;29;20450;-68
2023/09/13 05:25:00;;;;;;;7.00;1.80;;;;;;;17.07;100.00;101898.19;4912148;29;20486;-68
2023/09/13 05:27:26;;;;;;;4.63;1.43;;;;;;;16.21;100.00;101799.91;4919685;29;20521;-68
2023/09/13 05:29:52;;;;;;;7.30;1.93;;;;;;;16.20;100.00;101775.75;4911807;29;20436;-68
2023/09/13 05:32:18;;;;;;;5.53;1.60;;;;;;;16.83;100.00;101895.13;4909095;29;20447;-69
2023/09/13 05:34:44;;;;;;;5.60;1.90;;;;;;;16.56;100.00;101850.22;4913149;29;20429;-68
2023/09/13 05:37:09;;;;;;;6.30;1.73;;;;;;;16.86;100.00;101883.88;4911927;29;20193;-68
2023/09/13 05:39:35;;;;;;;8.67;1.97;;;;;;;16.11;100.00;101780.56;4910753;29;20202;-68
2023/09/13 05:42:02;;;;;;;5.63;1.40;;;;;;;16.72;100.00;101941.81;4912755;29;20212;-68
2023/09/13 05:44:27;;;;;;;8.00;1.93;;;;;;;16.15;100.00;101878.44;4913009;29;20262;-68
2023/09/13 05:46:53;;;;;;;4.40;1.57;;;;;;;16.50;100.00;102007.09;4911593;29;25205;-68
2023/09/13 05:49:18;;;;;;;9.70;2.07;;;;;;;16.45;100.00;102011.47;4912645;29;25079;-69
2023/09/13 05:51:45;;;;;;;4.93;1.70;;;;;;;16.53;100.00;102043.75;4912426;29;20249;-68
2023/09/13 05:54:11;;;;;;;5.90;1.80;;;;;;;16.42;100.00;102058.75;4910987;29;20296;-69
2023/09/13 05:56:36;;;;;;;7.70;1.90;;;;;;;15.97;100.00;102063.91;4911437;29;20516;-68
2023/09/13 05:59:02;;;;;;;4.40;1.63;;;;;;;16.16;100.00;102120.97;4909857;29;20200;-68
2023/09/13 06:01:27;;;;;;;5.80;1.60;;;;;;;16.08;100.00;102107.63;4911192;29;20322;-68
2023/09/13 06:03:53;;;;;;;6.50;1.40;;;;;;;16.23;100.00;102182.25;4910226;29;20212;-68
2023/09/13 06:06:18;;;;;;;5.10;1.80;;;;;;;15.73;100.00;102143.72;4911533;29;25067;-68
2023/09/13 06:08:43;;;;;;;4.90;1.83;;;;;;;15.75;100.00;102197.66;4907531;29;25067;-69
2023/09/13 06:11:09;;;;;;;8.10;2.00;;;;;;;16.21;100.00;102256.56;4915962;29;20207;-68
2023/09/13 06:13:34;;;;;;;6.93;2.30;;;;;;;16.29;100.00;102250.97;4903441;29;20223;-69
2023/09/13 06:16:00;;;;;;;8.57;3.13;;;;;;;16.11;100.00;102259.63;4926559;29;20663;-68
2023/09/13 06:18:25;;;;;;;5.60;2.03;;;;;;;15.95;100.00;102285.16;4910224;29;20188;-69
2023/09/13 06:20:51;;;;;;;5.17;1.60;;;;;;;15.83;100.00;102297.59;4923276;29;20181;-69
2023/09/13 06:23:36;;;;;;;6.20;1.87;;;;;;;15.58;100.00;102272.81;4925319;29;20228;-69
2023/09/13 06:26:02;;;;;;;4.73;1.90;;;;;;;15.99;100.00;102364.06;4912366;29;20223;-69
2023/09/13 06:28:28;;;;;;;5.23;1.63;;;;;;;15.22;100.00;102259.44;4911241;29;20441;-69
2023/09/13 06:30:53;;;;;;;7.67;2.50;;;;;;;16.01;100.00;102368.25;4913292;29;20244;-69
2023/09/13 06:33:19;;;;;;;6.20;2.10;;;;;;;15.71;100.00;102320.81;4911130;29;20592;-69
2023/09/13 06:35:44;;;;;;;5.30;1.50;;;;;;;15.09;100.00;102192.59;4912739;29;20307;-69
2023/09/13 06:38:11;;;;;;;4.67;1.90;;;;;;;15.90;100.00;102366.09;4925296;29;25173;-69
2023/09/13 06:40:37;;;;;;;4.80;1.83;;;;;;;15.48;100.00;102275.88;4911855;29;20188;-69
2023/09/13 06:43:03;;;;;;;6.90;2.40;;;;;;;15.38;100.00;102318.63;4911886;29;20448;-69
2023/09/13 06:45:28;;;;;;;4.20;1.77;;;;;;;15.92;100.00;102410.03;4911598;29;20583;-69
2023/09/13 06:47:54;;;;;;;7.67;2.00;;;;;;;15.21;100.00;102317.22;4912792;29;20632;-69
2023/09/13 06:50:19;;;;;;;6.37;1.73;;;;;;;15.71;100.00;102410.09;4912435;29;20577;-69
2023/09/13 06:52:45;;;;;;;10.73;2.40;;;;;;;15.90;100.00;102439.16;4911201;29;20206;-69
2023/09/13 06:55:10;;;;;;;8.80;2.20;;;;;;;15.40;100.00;102321.16;4912405;29;20177;-69
2023/09/13 06:57:35;;;;;;;6.63;2.10;;;;;;;15.89;100.00;102448.31;4912944;29;20363;-69
2023/09/13 07:00:03;;;;;;;6.20;2.47;;;;;;;16.10;100.00;102452.03;4912715;29;20619;-69
2023/09/13 07:02:28;;;;;;;10.00;2.60;;;;;;;15.86;100.00;102446.00;4911620;29;21011;-69
2023/09/13 07:04:54;;;;;;;8.77;2.63;;;;;;;15.16;100.00;102339.44;4910376;29;20482;-69
2023/09/13 07:07:19;;;;;;;7.73;2.70;;;;;;;15.41;100.00;102358.78;4912185;29;20185;-69
2023/09/13 07:09:45;;;;;;;6.03;2.43;;;;;;;15.57;100.00;102382.03;4909606;29;20668;-69
2023/09/13 07:12:10;;;;;;;6.10;2.20;;;;;;;15.23;100.00;102345.72;4911133;29;20180;-69
2023/09/13 07:14:36;;;;;;;8.53;2.60;;;;;;;15.26;100.00;102290.44;4911186;29;20199;-69
2023/09/13 07:17:01;;;;;;;8.27;2.97;;;;;;;14.97;100.00;102227.41;4909804;29;20199;-69
2023/09/13 07:19:27;;;;;;;7.87;2.83;;;;;;;15.40;100.00;102311.16;4906669;29;20782;-69
2023/09/13 07:21:52;;;;;;;7.97;3.03;;;;;;;15.65;100.00;102340.47;4911570;29;20574;-69
2023/09/13 07:24:17;;;;;;;5.63;2.50;;;;;;;15.52;100.00;102320.41;4910412;29;25067;-69
2023/09/13 07:26:43;;;;;;;6.97;3.00;;;;;;;15.27;100.00;102259.69;4910993;29;20193;-69
2023/09/13 07:29:08;;;;;;;6.10;2.50;;;;;;;15.75;100.00;102262.56;4911145;29;20188;-69
2023/09/13 07:31:34;;;;;;;5.70;2.50;;;;;;;15.49;100.00;102257.78;4908402;29;20193;-69
2023/09/13 07:34:02;;;;;;;8.00;2.87;;;;;;;15.04;100.00;102187.78;4911452;29;20726;-69
2023/09/13 07:36:28;;;;;;;6.97;2.70;;;;;;;15.94;100.00;102332.22;4911237;29;20193;-69
2023/09/13 07:38:54;;;;;;;7.43;2.27;;;;;;;15.48;100.00;102270.47;4908873;29;20574;-69
2023/09/13 07:41:20;;;;;;;9.90;2.70;;;;;;;15.89;100.00;102340.09;4922740;29;20182;-70
2023/09/13 07:43:45;;;;;;;5.13;2.57;;;;;;;15.82;100.00;102355.41;4911431;29;20480;-70
2023/09/13 07:46:11;;;;;;;7.20;2.20;;;;;;;15.89;100.00;102363.59;4925546;29;20204;-69
2023/09/13 07:48:37;;;;;;;7.03;2.03;;;;;;;15.83;100.00;102367.94;4909533;29;20192;-70
2023/09/13 07:51:03;;;;;;;8.40;2.53;;;;;;;16.07;100.00;102409.94;4925364;29;20432;-69
2023/09/13 07:53:28;;;;;;;7.73;2.30;;;;;;;15.77;100.00;102387.66;4911463;29;20212;-69
2023/09/13 07:55:55;;;;;;;8.80;2.57;;;;;;;15.65;100.00;102362.13;4910167;29;21004;-69
2023/09/13 07:58:21;;;;;;;6.20;1.90;;;;;;;15.87;100.00;102393.56;4911943;29;20190;-69
2023/09/13 08:00:46;;;;;;;6.17;1.73;;;;;;;15.34;100.00;102307.38;4910025;29;20960;-69
2023/09/13 08:03:12;;;;;;;5.53;1.90;;;;;;;16.10;100.00;102414.13;4911293;29;20216;-70
2023/09/13 08:05:37;;;;;;;6.10;1.87;;;;;;;16.24;100.00;102421.31;4910795;29;21014;-69
2023/09/13 08:08:03;;;;;;;4.57;1.40;;;;;;;16.19;100.00;102391.28;4910508;29;20189;-70
2023/09/13 08:10:29;;;;;;;8.30;1.90;;;;;;;16.39;100.00;102381.41;4908293;29;20204;-70
2023/09/13 08:12:54;;;;;;;6.47;1.90;;;;;;;16.25;100.00;102347.16;4909209;29;20216;-70
2023/09/13 08:15:20;;;;;;;4.90;1.80;;;;;;;15.59;100.00;102263.66;4925685;29;20732;-69
2023/09/13 08:17:45;;;;;;;5.60;1.70;;;;;;;16.16;100.00;102329.41;4910435;29;20288;-70
2023/09/13 08:20:11;;;;;;;8.17;2.27;;;;;;;16.35;100.00;102323.28;4909560;29;20196;-69
2023/09/13 08:22:37;;;;;;;5.60;1.93;;;;;;;16.24;100.00;102305.72;4910772;29;20351;-69
2023/09/13 08:25:04;;;;;;;7.83;2.30;;;;;;;16.23;100.00;102289.69;4910260;29;20241;-70
2023/09/13 08:27:29;;;;;;;5.23;1.80;;;;;;;16.44;100.00;102281.44;4910700;29;20447;-69
2023/09/13 08:29:55;;;;;;;5.73;2.33;;;;;;;16.40;100.00;102277.47;4909836;29;20444;-69
2023/09/13 08:32:21;;;;;;;6.40;1.90;;;;;;;16.36;100.00;102254.53;4910093;29;20437;-70
2023/09/13 08:34:47;;;;;;;6.50;2.37;;;;;;;16.36;100.00;102261.81;4925075;29;20185;-69
2023/09/13 08:37:12;;;;;;;5.33;1.90;;;;;;;16.40;100.00;102254.97;4910661;29;20448;-69
2023/09/13 08:39:38;;;;;;;6.33;2.17;;;;;;;16.59;100.00;102275.88;4908897;29;20277;-69
2023/09/13 08:42:03;;;;;;;7.43;2.20;;;;;;;16.29;100.00;102218.50;4909965;29;20195;-69
2023/09/13 08:44:30;;;;;;;7.33;2.70;;;;;;;16.69;100.00;102283.59;4909486;29;20731;-69
2023/09/13 08:46:58;;;;;;;5.13;1.93;;;;;;;16.45;100.00;102215.41;4908135;29;20204;-69
2023/09/13 08:49:24;;;;;;;8.97;2.63;;;;;;;16.90;100.00;102285.38;4909390;29;20445;-69
2023/09/13 08:51:52;;;;;;;7.07;2.63;;;;;;;16.91;100.00;102271.59;4910393;29;20545;-69
2023/09/13 08:54:18;;;;;;;7.03;2.53;;;;;;;17.07;100.00;102294.78;4910687;29;20467;-69
2023/09/13 08:56:45;;;;;;;6.77;2.10;;;;;;;16.87;100.00;102262.22;4911313;29;20441;-69
2023/09/13 08:59:15;;;;;;;7.17;2.17;;;;;;;16.84;100.00;102249.06;4913240;29;20458;-69
2023/09/13 09:01:51;;;;;;;4.60;1.73;;;;;;;17.06;100.00;102303.94;4913710;29;20427;-69
2023/09/13 09:04:19;;;;;;;6.53;2.30;;;;;;;17.07;100.00;102318.34;4914399;29;20459;-69
2023/09/13 09:06:45;;;;;;;7.23;2.90;;;;;;;17.07;100.00;102307.50;4913661;29;20439;-69
2023/09/13 09:09:20;;;;;;;5.13;1.93;;;;;;;17.05;100.00;102321.25;4913032;29;20464;-69
2023/09/13 09:11:55;;;;;;;5.73;2.03;;;;;;;17.01;100.00;102347.09;4911139;29;20453;-69
2023/09/13 09:14:22;;;;;;;9.20;2.20;;;;;;;17.25;100.00;102370.09;4909944;29;20559;-69
2023/09/13 09:16:51;;;;;;;5.30;1.70;;;;;;;17.24;100.00;102338.59;4914442;29;20436;-69
2023/09/13 09:19:16;;;;;;;4.00;1.60;;;;;;;17.23;100.00;102303.53;4911984;29;20444;-69
2023/09/13 09:21:42;;;;;;;6.23;2.10;;;;;;;17.44;100.00;102314.19;4913502;29;20428;-69
2023/09/13 09:24:08;;;;;;;6.13;1.83;;;;;;;17.38;100.00;102279.75;4912875;29;20232;-69
2023/09/13 09:26:33;;;;;;;4.53;1.63;;;;;;;17.39;100.00;102284.16;4912645;29;20207;-69
2023/09/13 09:29:12;;;;;;;6.40;2.00;;;;;;;17.23;100.00;102235.75;4914207;29;20191;-69
2023/09/13 09:31:39;;;;;;;5.43;1.97;;;;;;;17.08;100.00;102235.97;4912712;29;20193;-69
2023/09/13 09:34:05;;;;;;;8.60;1.77;;;;;;;16.92;100.00;102262.44;4912948;29;20453;-69
2023/09/13 09:36:34;;;;;;;9.20;2.63;;;;;;;16.92;100.00;102281.41;4914285;29;20424;-69
2023/09/13 09:39:04;;;;;;;7.67;2.17;;;;;;;16.59;100.00;102289.41;4913120;29;20494;-69
2023/09/13 09:41:36;;;;;;;11.30;2.10;;;;;;;16.80;100.00;102336.38;4925230;29;20457;-69
2023/09/13 09:44:03;;;;;;;5.90;2.10;;;;;;;16.86;100.00;102339.13;4911489;29;20488;-69
2023/09/13 09:46:30;;;;;;;7.50;2.27;;;;;;;16.54;100.00;102291.88;4913270;29;20811;-69
2023/09/13 09:48:55;;;;;;;7.73;2.20;;;;;;;16.61;100.00;102302.75;4910857;29;25102;-69
2023/09/13 09:51:21;;;;;;;5.47;2.13;;;;;;;16.84;100.00;102288.91;4912202;29;20950;-69
2023/09/13 09:53:48;;;;;;;5.37;1.73;;;;;;;17.00;100.00;102342.69;4912655;29;20201;-69
2023/09/13 09:56:16;;;;;;;8.33;2.50;;;;;;;16.87;100.00;102332.69;4912595;29;20196;-69
2023/09/13 09:58:42;;;;;;;7.77;1.80;;;;;;;16.77;100.00;102272.59;4913338;29;20484;-69
2023/09/13 10:01:11;;;;;;;5.50;1.53;;;;;;;16.83;100.00;102262.81;4909374;29;21115;-69
2023/09/13 10:03:38;;;;;;;4.40;1.30;;;;;;;17.06;100.00;102270.56;4906111;29;20468;-69
2023/09/13 10:06:13;;;;;;;5.40;1.93;;;;;;;16.63;100.00;102230.22;4923536;29;20577;-69
2023/09/13 10:08:43;;;;;;;9.80;2.10;;;;;;;16.88;100.00;102266.59;4910399;29;20437;-69
2023/09/13 10:11:10;;;;;;;4.73;1.60;;;;;;;17.01;100.00;102306.44;4904089;29;20539;-69
2023/09/13 10:13:37;;;;;;;11.20;2.17;;;;;;;16.22;100.00;102174.31;4909018;29;20456;-69
2023/09/13 10:16:05;;;;;;;6.60;2.27;;;;;;;16.94;100.00;102224.28;4912068;29;20796;-69
2023/09/13 10:18:35;;;;;;;5.27;1.70;;;;;;;17.14;100.00;102267.66;4917495;29;20447;-69
2023/09/13 10:21:04;;;;;;;5.83;1.97;;;;;;;16.59;100.00;102162.09;4923671;29;20432;-69
2023/09/13 10:23:39;;;;;;;7.00;1.43;;;;;;;17.23;100.00;102236.59;4907902;29;20524;-69
2023/09/13 10:26:08;;;;;;;4.90;1.87;;;;;;;16.47;100.00;102188.97;4907668;29;20595;-69
2023/09/13 10:28:35;;;;;;;6.60;1.90;;;;;;;17.00;100.00;102244.28;4910652;29;20436;-69
2023/09/13 10:31:09;;;;;;;8.23;1.97;;;;;;;16.60;100.00;102146.69;4909186;29;20428;-69
2023/09/13 10:33:37;;;;;;;7.10;1.87;;;;;;;17.05;100.00;102195.72;4908183;29;20584;-69
2023/09/13 10:36:07;;;;;;;7.10;2.23;;;;;;;17.19;100.00;102219.06;4910651;29;20477;-69
2023/09/13 10:38:46;;;;;;;5.33;1.70;;;;;;;16.70;100.00;102217.56;4911393;29;20523;-69
2023/09/13 10:41:17;;;;;;;6.33;1.80;;;;;;;16.58;100.00;102184.00;4907692;29;20544;-69
2023/09/13 10:43:43;;;;;;;3.70;1.70;;;;;;;17.14;100.00;102216.97;4911107;29;20469;-69
2023/09/13 10:46:10;;;;;;;7.30;2.73;;;;;;;17.30;100.00;102228.44;4911892;29;20468;-69
2023/09/13 10:48:38;;;;;;;6.07;2.23;;;;;;;16.75;100.00;102114.81;4927357;29;20432;-69
2023/09/13 10:51:04;;;;;;;8.03;1.97;;;;;;;17.08;100.00;102154.63;4911048;29;20440;-69
2023/09/13 10:53:31;;;;;;;5.97;2.47;;;;;;;17.20;100.00;102180.06;4910569;29;20508;-69
2023/09/13 10:55:57;;;;;;;5.33;1.80;;;;;;;17.36;100.00;102168.78;4925504;29;20528;-69
2023/09/13 10:58:22;;;;;;;4.90;2.00;;;;;;;16.92;100.00;102045.63;4912935;29;25203;-69
2023/09/13 11:00:55;;;;;;;6.13;2.33;;;;;;;17.33;100.00;102089.75;4910836;29;20208;-69
2023/09/13 11:03:22;;;;;;;4.87;1.67;;;;;;;17.54;100.00;102148.28;4908806;29;25144;-69
2023/09/13 11:05:50;;;;;;;4.47;1.70;;;;;;;18.08;100.00;102138.91;4909935;29;20464;-69
2023/09/13 11:08:33;;;;;;;4.57;1.93;;;;;;;18.52;100.00;102132.56;4909621;29;20458;-69
2023/09/13 11:11:18;;;;;;;5.83;2.10;;;;;;;18.55;100.00;102125.88;4910609;29;20508;-69
2023/09/13 11:13:52;;;;;;;4.30;1.53;;;;;;;18.71;100.00;102007.59;4909577;29;20464;-69
2023/09/13 11:16:18;;;;;;;4.00;1.40;;;;;;;18.86;100.00;101937.44;4910817;29;20438;-69